Time;durP1;ratioP1;P1;durP2;ratioP2;P2;SDS_P1;SDS_P2;PMS_P1;PMS_P2;Temp;Humidity;BMP_temperature;BMP_pressure;BME280_temperature;BME280_humidity;BME280_pressure;Samples;Min_cycle;Max_cycle;Signal;HPM_P1;HPM_P2
2023/09/27 00:02:00;;;;;;;3.97;3.00;;;13.90;1.00;;;;;;4992285;28;20398;-87
2023/09/27 00:04:26;;;;;;;3.30;2.60;;;12.60;1.00;;;;;;4992351;28;20805;-88
2023/09/27 00:06:51;;;;;;;3.10;2.80;;;11.10;1.00;;;;;;4992302;28;20898;-87
2023/09/27 00:09:17;;;;;;;2.90;2.70;;;11.70;1.00;;;;;;4992178;28;20456;-87
2023/09/27 00:11:43;;;;;;;3.20;2.90;;;11.70;1.00;;;;;;4992360;28;20451;-87
2023/09/27 00:14:08;;;;;;;3.47;2.90;;;12.30;1.00;;;;;;4994149;28;20444;-87
2023/09/27 00:16:35;;;;;;;3.90;3.50;;;14.70;1.00;;;;;;4993606;28;20456;-87
2023/09/27 00:19:01;;;;;;;3.17;2.90;;;12.40;1.00;;;;;;4992847;28;20417;-87
2023/09/27 00:21:26;;;;;;;3.13;2.83;;;12.50;1.00;;;;;;5021104;28;20873;-87
2023/09/27 00:23:52;;;;;;;3.78;3.00;;;13.20;1.00;;;;;;5020357;28;20389;-87
2023/09/27 00:26:17;;;;;;;4.20;2.90;;;12.30;1.00;;;;;;5022280;28;20400;-87
2023/09/27 00:28:43;;;;;;;3.40;3.10;;;11.40;1.00;;;;;;5004224;28;20406;-87
2023/09/27 00:31:09;;;;;;;3.70;2.90;;;10.80;1.00;;;;;;4998119;28;20390;-87
2023/09/27 00:33:34;;;;;;;4.47;3.15;;;11.50;1.00;;;;;;4993578;28;20407;-87
2023/09/27 00:36:00;;;;;;;4.70;2.92;;;11.90;1.00;;;;;;4991602;28;20493;-88
2023/09/27 00:38:25;;;;;;;3.90;3.10;;;11.20;1.00;;;;;;4992908;28;20474;-87
2023/09/27 00:40:51;;;;;;;4.03;3.00;;;12.00;1.00;;;;;;4991836;28;20398;-87
2023/09/27 00:43:26;;;;;;;3.40;3.00;;;12.10;1.00;;;;;;4991426;28;20390;-87
2023/09/27 00:46:01;;;;;;;3.45;3.15;;;12.10;1.00;;;;;;4991735;28;20383;-87
2023/09/27 00:48:27;;;;;;;4.07;2.80;;;12.20;1.00;;;;;;4991205;28;20406;-87
2023/09/27 00:50:54;;;;;;;3.28;2.70;;;12.30;1.00;;;;;;4993028;28;20382;-87
2023/09/27 00:53:25;;;;;;;3.72;3.10;;;12.20;1.00;;;;;;4990451;28;20469;-87
2023/09/27 00:55:51;;;;;;;3.42;2.60;;;11.80;1.00;;;;;;4991565;28;20403;-87
2023/09/27 00:58:19;;;;;;;3.20;2.90;;;12.40;1.00;;;;;;4990759;28;20414;-88
2023/09/27 01:00:50;;;;;;;3.60;2.70;;;12.50;1.00;;;;;;4991243;28;20497;-86
2023/09/27 01:03:16;;;;;;;3.28;2.60;;;12.40;1.00;;;;;;4990898;28;20461;-87
2023/09/27 01:05:42;;;;;;;3.05;2.60;;;12.40;1.00;;;;;;4990693;28;20486;-87
2023/09/27 01:08:08;;;;;;;3.60;2.80;;;12.50;1.00;;;;;;4980111;28;20415;-87
2023/09/27 01:10:34;;;;;;;3.60;2.70;;;12.60;1.00;;;;;;4991046;28;20454;-87
2023/09/27 01:13:00;;;;;;;3.20;2.90;;;12.50;1.00;;;;;;4991069;28;20866;-87
2023/09/27 01:15:26;;;;;;;3.00;2.80;;;12.60;1.00;;;;;;4991180;28;20832;-87
2023/09/27 01:17:55;;;;;;;2.72;2.53;;;12.40;1.00;;;;;;4991723;28;20464;-87
2023/09/27 01:20:21;;;;;;;3.00;2.80;;;11.70;1.00;;;;;;4990778;28;20465;-87
2023/09/27 01:23:06;;;;;;;2.80;2.60;;;12.40;1.00;;;;;;4990152;28;20878;-87
2023/09/27 01:25:33;;;;;;;3.40;3.10;;;11.90;1.00;;;;;;4990794;28;20387;-87
2023/09/27 01:28:00;;;;;;;3.47;2.77;;;12.40;1.00;;;;;;4991000;28;20489;-87
2023/09/27 01:30:32;;;;;;;3.20;2.90;;;12.40;1.00;;;;;;4990806;28;20462;-88
2023/09/27 01:33:04;;;;;;;3.20;3.00;;;12.30;1.00;;;;;;4992196;28;20382;-87
2023/09/27 01:35:30;;;;;;;3.10;2.90;;;13.50;1.00;;;;;;4990731;28;20906;-87
2023/09/27 01:37:55;;;;;;;3.20;2.90;;;12.30;1.00;;;;;;4991830;28;20402;-87
2023/09/27 01:40:25;;;;;;;3.20;2.90;;;12.10;1.00;;;;;;4990571;28;20394;-86
2023/09/27 01:42:52;;;;;;;2.90;2.70;;;12.20;1.00;;;;;;4994366;28;20890;-87
2023/09/27 01:45:17;;;;;;;3.42;2.83;;;12.10;1.00;;;;;;4996002;28;20390;-87
2023/09/27 01:47:43;;;;;;;4.50;2.80;;;12.10;1.00;;;;;;4990911;28;20391;-87
2023/09/27 01:50:10;;;;;;;3.17;2.80;;;12.00;1.00;;;;;;4990469;28;20849;-86
2023/09/27 01:52:35;;;;;;;4.65;2.90;;;11.90;1.00;;;;;;4991738;28;20394;-87
2023/09/27 01:55:03;;;;;;;3.53;3.22;;;11.80;1.00;;;;;;4990583;28;20747;-88
2023/09/27 01:57:28;;;;;;;3.30;3.00;;;11.80;1.00;;;;;;4992036;28;20386;-88
2023/09/27 01:59:54;;;;;;;3.90;3.10;;;11.80;1.00;;;;;;4991656;28;20502;-87
2023/09/27 02:02:19;;;;;;;3.53;3.10;;;11.80;1.00;;;;;;4989885;28;20399;-87
2023/09/27 02:04:45;;;;;;;3.50;3.20;;;12.00;1.00;;;;;;4990354;28;20394;-87
2023/09/27 02:07:10;;;;;;;3.20;2.90;;;11.90;1.00;;;;;;4994567;28;20402;-87
2023/09/27 02:09:36;;;;;;;3.30;3.00;;;11.70;1.00;;;;;;5012259;28;20433;-87
2023/09/27 02:12:01;;;;;;;3.38;3.08;;;11.60;1.00;;;;;;4991097;28;20449;-87
2023/09/27 02:14:27;;;;;;;3.30;2.65;;;13.00;1.00;;;;;;4992057;28;20403;-87
2023/09/27 02:16:52;;;;;;;5.40;3.10;;;11.70;1.00;;;;;;4990286;28;20408;-87
2023/09/27 02:19:18;;;;;;;2.97;2.63;;;11.70;1.00;;;;;;4991619;28;20509;-87
2023/09/27 02:21:43;;;;;;;3.10;2.90;;;11.70;1.00;;;;;;5009674;28;20781;-87
2023/09/27 02:24:09;;;;;;;3.60;3.20;;;12.30;1.00;;;;;;5009901;28;20900;-87
2023/09/27 02:26:35;;;;;;;3.10;2.90;;;11.40;1.00;;;;;;5001582;28;20429;-87
2023/09/27 02:29:01;;;;;;;2.83;2.63;;;11.50;1.00;;;;;;4991587;28;20391;-87
2023/09/27 02:31:27;;;;;;;4.80;3.80;;;11.60;1.00;;;;;;4991024;28;20406;-87
2023/09/27 02:33:52;;;;;;;3.25;2.90;;;11.50;1.00;;;;;;4990419;28;20425;-87
2023/09/27 02:36:18;;;;;;;3.50;3.13;;;11.60;1.00;;;;;;4994062;28;20426;-87
2023/09/27 02:38:43;;;;;;;4.43;2.97;;;11.60;1.00;;;;;;4993900;28;20426;-87
2023/09/27 02:41:09;;;;;;;3.40;3.10;;;11.00;1.00;;;;;;4994474;28;20472;-87
2023/09/27 02:43:35;;;;;;;3.40;2.90;;;11.40;1.00;;;;;;4993687;28;21013;-87
2023/09/27 02:46:01;;;;;;;3.57;2.80;;;11.50;1.00;;;;;;4995433;28;20387;-87
2023/09/27 02:48:26;;;;;;;2.70;2.50;;;11.50;1.00;;;;;;4995048;28;20410;-87
2023/09/27 02:50:52;;;;;;;3.03;2.70;;;11.50;1.00;;;;;;4995098;28;20398;-87
2023/09/27 02:53:18;;;;;;;4.10;3.20;;;11.50;1.00;;;;;;4992312;28;20395;-87
2023/09/27 02:55:44;;;;;;;3.35;3.05;;;11.20;1.00;;;;;;4992200;28;20771;-87
2023/09/27 02:58:10;;;;;;;3.10;2.80;;;11.50;1.00;;;;;;4995913;28;20469;-86
2023/09/27 03:00:36;;;;;;;3.27;2.97;;;11.50;1.00;;;;;;5014530;28;20391;-88
2023/09/27 03:03:03;;;;;;;3.20;2.90;;;11.50;1.00;;;;;;5014963;28;20405;-86
2023/09/27 03:05:30;;;;;;;3.60;3.30;;;11.50;1.00;;;;;;5015228;28;20406;-87
2023/09/27 03:07:57;;;;;;;3.22;2.95;;;11.40;1.00;;;;;;5014663;28;20412;-87
2023/09/27 03:10:22;;;;;;;4.40;3.00;;;11.30;1.00;;;;;;5014612;28;20395;-86
2023/09/27 03:12:51;;;;;;;4.30;3.10;;;11.30;1.00;;;;;;5014116;28;20498;-86
2023/09/27 03:15:17;;;;;;;3.60;3.30;;;11.40;1.00;;;;;;5015375;28;20439;-87
2023/09/27 03:17:44;;;;;;;3.28;2.97;;;11.40;1.00;;;;;;5008073;28;20402;-86
2023/09/27 03:20:16;;;;;;;3.50;3.20;;;12.30;1.00;;;;;;5004438;28;20403;-87
2023/09/27 03:22:45;;;;;;;3.15;2.85;;;11.40;1.00;;;;;;5012962;28;20880;-86
2023/09/27 03:25:11;;;;;;;3.03;2.83;;;10.70;1.00;;;;;;4993929;28;20402;-87
2023/09/27 03:27:37;;;;;;;3.00;2.80;;;11.30;1.00;;;;;;4993980;28;20401;-87
2023/09/27 03:30:05;;;;;;;3.72;3.33;;;11.10;1.00;;;;;;4994080;28;20406;-86
2023/09/27 03:32:32;;;;;;;3.20;3.00;;;11.30;1.00;;;;;;4994841;28;20906;-86
2023/09/27 03:34:58;;;;;;;2.90;2.70;;;11.30;1.00;;;;;;4994599;28;20909;-86
2023/09/27 03:37:24;;;;;;;3.40;3.10;;;11.00;1.00;;;;;;4994120;28;20395;-86
2023/09/27 03:39:52;;;;;;;3.47;3.17;;;11.20;1.00;;;;;;4994147;28;20483;-87
2023/09/27 03:42:20;;;;;;;3.38;2.80;;;11.20;1.00;;;;;;4993886;28;20473;-86
2023/09/27 03:44:47;;;;;;;3.22;3.03;;;11.20;1.00;;;;;;4983446;28;20396;-86
2023/09/27 03:47:13;;;;;;;3.38;3.00;;;11.10;1.00;;;;;;4991988;28;20456;-87
2023/09/27 03:49:40;;;;;;;3.40;3.10;;;11.10;1.00;;;;;;5011394;28;20434;-87
2023/09/27 03:52:06;;;;;;;4.22;3.03;;;11.10;1.00;;;;;;4993063;28;20391;-87
2023/09/27 03:54:32;;;;;;;3.10;2.90;;;11.10;1.00;;;;;;4994720;28;20407;-87
2023/09/27 03:56:58;;;;;;;3.30;3.00;;;11.30;1.00;;;;;;4994789;28;20441;-87
2023/09/27 03:59:24;;;;;;;3.50;3.20;;;11.30;1.00;;;;;;4994531;28;20786;-87
2023/09/27 04:01:49;;;;;;;3.23;2.93;;;10.70;1.00;;;;;;4993240;28;20397;-86
2023/09/27 04:04:15;;;;;;;3.50;3.20;;;10.90;1.00;;;;;;4993345;28;20477;-86
2023/09/27 04:06:40;;;;;;;3.55;3.08;;;11.20;1.00;;;;;;4993908;28;20402;-86
2023/09/27 04:09:08;;;;;;;3.22;2.90;;;11.50;1.00;;;;;;4994791;28;20410;-86
2023/09/27 04:11:33;;;;;;;4.30;3.20;;;11.50;1.00;;;;;;4993020;28;20500;-85
2023/09/27 04:13:59;;;;;;;3.50;2.97;;;11.40;1.00;;;;;;4993784;28;20378;-86
2023/09/27 04:16:28;;;;;;;4.70;3.10;;;11.50;1.00;;;;;;4993242;28;20404;-88
2023/09/27 04:18:53;;;;;;;4.05;3.03;;;11.40;1.00;;;;;;4993569;28;20413;-88
2023/09/27 04:21:19;;;;;;;3.47;3.15;;;11.40;1.00;;;;;;5000118;28;20822;-87
2023/09/27 04:23:56;;;;;;;3.40;3.10;;;11.20;1.00;;;;;;4994566;28;20482;-87
2023/09/27 04:26:23;;;;;;;3.40;3.10;;;11.30;1.00;;;;;;4994796;28;20403;-87
2023/09/27 04:28:49;;;;;;;3.10;2.90;;;11.20;1.00;;;;;;4996035;28;20415;-87
2023/09/27 04:31:15;;;;;;;3.60;3.30;;;11.30;1.00;;;;;;5011388;28;20405;-87
2023/09/27 04:33:44;;;;;;;3.30;3.00;;;11.20;1.00;;;;;;5018887;28;20391;-88
2023/09/27 04:36:15;;;;;;;3.30;2.90;;;11.30;1.00;;;;;;5017868;28;20406;-89
2023/09/27 04:38:41;;;;;;;3.42;3.13;;;11.30;1.00;;;;;;5005406;28;20421;-86
2023/09/27 04:41:07;;;;;;;3.40;2.80;;;11.20;1.00;;;;;;4993363;28;20486;-87
2023/09/27 04:43:32;;;;;;;3.63;3.33;;;11.30;1.00;;;;;;4996991;28;20481;-87
2023/09/27 04:45:58;;;;;;;3.43;2.80;;;11.40;1.00;;;;;;4996010;28;20410;-86
2023/09/27 04:48:24;;;;;;;3.70;3.10;;;11.50;1.00;;;;;;4994815;28;20421;-86
2023/09/27 04:50:49;;;;;;;4.35;3.70;;;11.40;1.00;;;;;;4992710;28;20631;-88
2023/09/27 04:53:15;;;;;;;3.80;3.38;;;11.10;1.00;;;;;;4992967;28;20485;-86
2023/09/27 04:55:40;;;;;;;5.10;3.60;;;11.00;1.00;;;;;;4996314;28;20435;-87
2023/09/27 04:58:06;;;;;;;3.90;3.60;;;10.90;1.00;;;;;;4990944;28;20387;-86
2023/09/27 05:00:32;;;;;;;4.23;3.83;;;10.90;1.00;;;;;;4988337;28;20862;-87
2023/09/27 05:02:58;;;;;;;4.70;4.30;;;10.10;1.00;;;;;;4993328;28;20394;-88
2023/09/27 05:05:23;;;;;;;5.60;3.70;;;12.10;1.00;;;;;;4994363;28;20405;-87
2023/09/27 05:07:49;;;;;;;4.10;3.70;;;12.30;1.00;;;;;;4991833;28;20395;-87
2023/09/27 05:10:17;;;;;;;3.53;3.22;;;11.10;1.00;;;;;;4995029;28;20434;-88
2023/09/27 05:12:42;;;;;;;3.90;2.90;;;11.80;1.00;;;;;;4998826;28;20383;-87
2023/09/27 05:15:11;;;;;;;4.10;3.70;;;9.60;1.00;;;;;;4996496;28;20469;-85
2023/09/27 05:17:37;;;;;;;4.43;3.60;;;10.90;1.00;;;;;;4992223;28;20404;-86
2023/09/27 05:20:10;;;;;;;3.80;3.50;;;10.50;1.00;;;;;;5046568;23;20498;-84
2023/09/27 05:22:36;;;;;;;3.38;3.08;;;10.90;1.00;;;;;;5026075;28;20383;-84
2023/09/27 05:25:03;;;;;;;3.87;3.10;;;11.00;1.00;;;;;;5028347;28;20450;-84
2023/09/27 05:27:29;;;;;;;5.68;3.40;;;11.00;1.00;;;;;;5033095;28;20385;-84
2023/09/27 05:29:55;;;;;;;3.90;3.60;;;10.90;1.00;;;;;;5007571;28;20485;-83
2023/09/27 05:32:20;;;;;;;3.87;3.53;;;10.90;1.00;;;;;;5008984;28;20396;-84
2023/09/27 05:34:46;;;;;;;4.40;3.30;;;10.80;1.00;;;;;;5008649;28;20478;-84
2023/09/27 05:37:11;;;;;;;3.70;3.40;;;11.10;1.00;;;;;;5001898;28;20404;-84
2023/09/27 05:39:37;;;;;;;4.90;3.45;;;10.80;1.00;;;;;;5015448;28;20472;-83
2023/09/27 05:42:02;;;;;;;3.93;3.40;;;10.90;1.00;;;;;;5012815;28;20630;-82
2023/09/27 05:44:28;;;;;;;3.93;3.27;;;10.80;1.00;;;;;;5015013;28;20520;-82
2023/09/27 05:46:55;;;;;;;3.37;3.07;;;10.70;1.00;;;;;;5003489;28;20563;-83
2023/09/27 05:49:20;;;;;;;3.45;3.15;;;10.80;1.00;;;;;;5009365;28;20409;-82
2023/09/27 05:51:46;;;;;;;3.10;2.90;;;10.80;1.00;;;;;;5003729;28;20447;-82
2023/09/27 05:54:13;;;;;;;6.85;4.10;;;10.90;1.00;;;;;;5013244;28;20423;-89
2023/09/27 05:56:39;;;;;;;5.10;3.40;;;10.80;1.00;;;;;;5013794;28;20433;-90
2023/09/27 05:59:11;;;;;;;3.50;3.20;;;10.80;1.00;;;;;;5011599;28;20397;-89
2023/09/27 06:01:37;;;;;;;3.83;3.20;;;10.70;1.00;;;;;;5007749;28;20430;-89
2023/09/27 06:04:03;;;;;;;3.13;2.88;;;10.90;1.00;;;;;;4998836;28;20789;-90
2023/09/27 06:06:36;;;;;;;3.60;3.00;;;10.90;1.00;;;;;;5000658;28;20389;-90
2023/09/27 06:09:05;;;;;;;4.63;3.15;;;10.90;1.00;;;;;;4991485;28;20407;-90
2023/09/27 06:11:32;;;;;;;3.47;3.17;;;10.80;1.00;;;;;;5003081;28;20488;-90
2023/09/27 06:13:58;;;;;;;3.80;3.30;;;10.80;1.00;;;;;;5011251;28;20392;-90
2023/09/27 06:16:24;;;;;;;3.60;3.30;;;11.00;1.00;;;;;;5018055;28;20384;-90
2023/09/27 06:18:53;;;;;;;5.57;3.30;;;10.80;1.00;;;;;;5025439;28;20488;-90
2023/09/27 06:21:19;;;;;;;4.40;3.00;;;12.90;1.00;;;;;;5018439;28;20432;-90
2023/09/27 06:23:44;;;;;;;3.40;3.07;;;12.80;1.00;;;;;;5014287;28;20392;-91
2023/09/27 06:26:12;;;;;;;3.40;3.00;;;12.90;1.00;;;;;;5015883;28;20753;-91
2023/09/27 06:28:38;;;;;;;3.65;3.10;;;12.60;1.00;;;;;;5015145;28;20414;-90
2023/09/27 06:31:06;;;;;;;5.53;2.92;;;11.00;1.00;;;;;;5011603;28;20401;-91
2023/09/27 06:33:33;;;;;;;3.50;3.13;;;11.20;1.00;;;;;;5011591;28;20393;-91
2023/09/27 06:35:59;;;;;;;3.47;2.80;;;13.30;1.00;;;;;;5012995;28;20399;-91
2023/09/27 06:38:25;;;;;;;3.30;3.00;;;11.20;1.00;;;;;;5013299;28;20385;-91
2023/09/27 06:40:51;;;;;;;4.90;4.25;;;11.50;1.00;;;;;;5013112;28;20395;-91
2023/09/27 06:43:16;;;;;;;4.85;3.60;;;11.20;1.00;;;;;;5016162;28;20435;-90
2023/09/27 06:45:42;;;;;;;3.38;3.08;;;11.70;1.00;;;;;;5014801;28;20404;-90
2023/09/27 06:48:08;;;;;;;3.88;3.58;;;10.60;1.00;;;;;;5014255;28;20416;-87
2023/09/27 06:50:34;;;;;;;4.73;2.80;;;11.60;1.00;;;;;;5013567;28;20389;-91
2023/09/27 06:52:59;;;;;;;3.22;2.88;;;10.60;1.00;;;;;;5011708;28;20456;-89
2023/09/27 06:55:25;;;;;;;3.80;3.08;;;11.30;1.00;;;;;;5013353;28;20392;-89
2023/09/27 06:57:52;;;;;;;3.50;3.20;;;11.80;1.00;;;;;;5011836;28;20389;-90
2023/09/27 07:00:18;;;;;;;4.32;2.72;;;12.10;1.00;;;;;;5011125;28;20412;-90
2023/09/27 07:02:51;;;;;;;2.90;2.60;;;11.90;1.00;;;;;;5010948;28;20447;-89
2023/09/27 07:05:21;;;;;;;4.18;3.00;;;12.30;1.00;;;;;;5010779;28;20478;-89
2023/09/27 07:07:48;;;;;;;4.90;2.80;;;12.30;1.00;;;;;;5010695;28;20809;-89
2023/09/27 07:10:13;;;;;;;3.47;3.00;;;12.10;1.00;;;;;;5011187;28;20404;-89
2023/09/27 07:12:40;;;;;;;3.30;3.00;;;12.20;1.00;;;;;;5028765;28;20417;-91
2023/09/27 07:15:10;;;;;;;3.37;2.70;;;13.10;1.00;;;;;;5033468;28;20401;-90
2023/09/27 07:17:37;;;;;;;3.13;2.80;;;13.90;1.00;;;;;;5013334;28;20892;-89
2023/09/27 07:20:10;;;;;;;3.00;2.67;;;15.20;1.00;;;;;;5012781;28;20405;-89
2023/09/27 07:22:36;;;;;;;2.85;2.60;;;12.90;1.00;;;;;;5016161;28;20482;-89
2023/09/27 07:25:03;;;;;;;3.38;2.72;;;12.70;1.00;;;;;;5016602;28;20403;-89
2023/09/27 07:27:29;;;;;;;2.90;2.50;;;13.10;1.00;;;;;;5017776;28;20391;-89
2023/09/27 07:29:54;;;;;;;3.85;2.30;;;12.90;1.00;;;;;;5015547;28;20542;-88
2023/09/27 07:32:20;;;;;;;3.53;2.90;;;13.00;1.00;;;;;;5014390;28;20389;-88
2023/09/27 07:34:45;;;;;;;5.20;2.90;;;12.50;1.00;;;;;;5014446;28;20389;-89
2023/09/27 07:37:11;;;;;;;3.10;2.80;;;12.90;1.00;;;;;;5014330;28;20974;-89
2023/09/27 07:39:37;;;;;;;2.97;2.50;;;13.20;1.00;;;;;;5013982;28;20577;-88
2023/09/27 07:42:03;;;;;;;3.17;2.87;;;13.90;1.00;;;;;;5013822;28;20423;-90
2023/09/27 07:44:32;;;;;;;3.80;2.50;;;15.70;1.00;;;;;;5014030;28;20754;-89
2023/09/27 07:46:58;;;;;;;2.97;2.35;;;13.80;1.00;;;;;;5014407;28;20418;-90
2023/09/27 07:49:23;;;;;;;3.70;2.70;;;16.20;1.00;;;;;;5013971;28;20479;-90
2023/09/27 07:51:49;;;;;;;2.90;2.60;;;14.80;1.00;;;;;;5014224;28;20402;-89
2023/09/27 07:54:15;;;;;;;2.65;2.40;;;13.20;1.00;;;;;;5013502;28;20385;-89
2023/09/27 07:56:41;;;;;;;2.93;2.40;;;16.10;1.00;;;;;;5014372;28;20438;-90
2023/09/27 07:59:09;;;;;;;4.60;2.50;;;14.80;1.00;;;;;;5014352;28;20400;-90
2023/09/27 08:01:36;;;;;;;3.78;2.50;;;14.70;1.00;;;;;;5014914;28;20389;-91
2023/09/27 08:04:12;;;;;;;3.08;2.60;;;15.80;1.00;;;;;;5014594;28;20393;-90
2023/09/27 08:06:38;;;;;;;3.93;2.53;;;14.70;1.00;;;;;;5014152;28;20829;-89
2023/09/27 08:09:06;;;;;;;3.15;2.50;;;16.70;1.00;;;;;;5014907;28;20414;-90
2023/09/27 08:11:31;;;;;;;3.08;2.35;;;13.70;1.00;;;;;;5014082;28;20400;-90
2023/09/27 08:13:57;;;;;;;2.72;2.40;;;14.30;1.00;;;;;;5014075;28;20484;-90
2023/09/27 08:16:23;;;;;;;2.90;2.63;;;13.60;1.00;;;;;;5013159;28;20483;-90
2023/09/27 08:18:49;;;;;;;3.45;2.70;;;17.30;1.00;;;;;;5014035;28;20451;-89
2023/09/27 08:21:14;;;;;;;2.45;2.20;;;15.30;1.00;;;;;;5015416;28;20428;-90
2023/09/27 08:23:41;;;;;;;2.95;2.58;;;15.30;1.00;;;;;;5013932;28;20391;-89
2023/09/27 08:26:12;;;;;;;3.35;2.50;;;18.40;1.00;;;;;;5013805;28;20388;-89
2023/09/27 08:28:37;;;;;;;4.97;2.65;;;17.50;1.00;;;;;;5015217;28;20777;-89
2023/09/27 08:31:04;;;;;;;3.50;3.00;;;16.00;1.00;;;;;;5029026;28;20400;-90
2023/09/27 08:33:30;;;;;;;3.90;3.00;;;15.90;1.00;;;;;;5038411;28;20409;-92
2023/09/27 08:35:56;;;;;;;3.57;2.90;;;16.20;1.00;;;;;;5037899;28;20405;-89
2023/09/27 08:38:21;;;;;;;4.72;3.45;;;16.00;1.00;;;;;;5038178;28;20408;-90
2023/09/27 08:40:48;;;;;;;6.35;3.35;;;16.40;1.00;;;;;;5030388;28;20399;-88
2023/09/27 08:43:17;;;;;;;4.80;3.40;;;17.50;1.00;;;;;;5029851;28;20424;-89
2023/09/27 08:45:45;;;;;;;3.38;2.97;;;16.60;1.00;;;;;;5027397;28;20389;-90
2023/09/27 08:48:16;;;;;;;4.10;3.13;;;15.40;1.00;;;;;;5037957;28;20400;-90
2023/09/27 08:50:42;;;;;;;6.10;2.85;;;15.80;1.00;;;;;;5037650;28;20397;-92
2023/09/27 08:53:09;;;;;;;3.97;3.13;;;18.50;1.00;;;;;;5037693;28;20401;-92
2023/09/27 08:55:37;;;;;;;4.07;3.22;;;16.10;1.00;;;;;;5018422;28;20413;-90
2023/09/27 08:58:03;;;;;;;4.47;2.75;;;19.70;1.00;;;;;;5013094;28;20403;-89
2023/09/27 09:00:32;;;;;;;4.00;3.33;;;21.00;1.00;;;;;;5012316;28;20484;-90
2023/09/27 09:03:00;;;;;;;4.55;3.00;;;20.20;1.00;;;;;;5012721;28;20753;-91
2023/09/27 09:05:29;;;;;;;3.30;3.00;;;17.90;1.00;;;;;;5013514;28;20380;-91
2023/09/27 09:07:56;;;;;;;4.05;2.90;;;17.30;1.00;;;;;;5013136;28;20426;-91
2023/09/27 09:10:25;;;;;;;4.00;2.70;;;17.20;1.00;;;;;;4996601;28;20499;-91
2023/09/27 09:12:54;;;;;;;3.08;2.78;;;17.90;1.00;;;;;;5013668;28;20388;-91
2023/09/27 09:15:28;;;;;;;3.40;2.93;;;17.50;1.00;;;;;;5012564;28;20388;-89
2023/09/27 09:17:57;;;;;;;3.03;2.72;;;17.70;1.00;;;;;;5012938;28;20947;-91
2023/09/27 09:20:28;;;;;;;3.90;2.67;;;18.00;1.00;;;;;;5011978;28;20548;-91
2023/09/27 09:22:57;;;;;;;4.63;2.58;;;17.70;1.00;;;;;;5012190;28;20403;-92
2023/09/27 09:25:23;;;;;;;3.00;2.70;;;20.00;1.00;;;;;;5012230;28;20889;-91
2023/09/27 09:28:07;;;;;;;3.00;2.70;;;18.10;1.00;;;;;;5012693;28;20461;-89
2023/09/27 09:30:35;;;;;;;3.47;2.70;;;18.20;1.00;;;;;;5011910;28;20393;-91
2023/09/27 09:33:00;;;;;;;4.05;2.70;;;20.40;1.00;;;;;;5012329;28;20396;-91
2023/09/27 09:35:31;;;;;;;3.17;2.50;;;19.60;1.00;;;;;;5012243;28;20389;-92
2023/09/27 09:37:58;;;;;;;3.13;2.70;;;16.50;1.00;;;;;;5011933;28;20495;-91
2023/09/27 09:40:24;;;;;;;3.70;2.47;;;18.60;1.00;;;;;;5011763;28;20384;-92
2023/09/27 09:42:50;;;;;;;2.67;2.30;;;18.60;1.00;;;;;;5012385;28;20767;-91
2023/09/27 09:45:16;;;;;;;3.70;2.63;;;21.90;1.00;;;;;;5013003;28;20892;-91
2023/09/27 09:48:23;;;;;;;4.05;2.95;;;19.90;1.00;;;;;;5012850;28;20389;-91
2023/09/27 09:50:49;;;;;;;3.00;2.50;;;21.00;1.00;;;;;;5013899;28;20979;-91
2023/09/27 09:53:16;;;;;;;4.20;2.83;;;18.80;1.00;;;;;;5016932;28;20404;-91
2023/09/27 09:55:46;;;;;;;3.30;2.50;;;18.80;1.00;;;;;;5013742;28;20400;-91
2023/09/27 09:58:32;;;;;;;5.00;3.10;;;17.60;1.00;;;;;;5033492;28;20434;-92
2023/09/27 10:01:01;;;;;;;3.42;3.00;;;20.80;1.00;;;;;;5029016;28;20412;-90
2023/09/27 10:03:32;;;;;;;5.00;2.80;;;21.60;1.00;;;;;;5012875;28;20404;-90
2023/09/27 10:06:04;;;;;;;5.85;2.97;;;19.40;1.00;;;;;;5012545;28;20793;-90
2023/09/27 10:08:34;;;;;;;4.72;3.05;;;19.10;1.00;;;;;;5013453;28;20412;-91
2023/09/27 10:11:04;;;;;;;3.00;2.70;;;18.20;1.00;;;;;;5011784;28;20397;-89
2023/09/27 10:13:32;;;;;;;4.55;3.25;;;19.80;1.00;;;;;;5011818;28;20389;-91
2023/09/27 10:15:58;;;;;;;3.58;3.05;;;20.80;1.00;;;;;;5011773;28;20395;-88
2023/09/27 10:18:24;;;;;;;4.55;2.80;;;20.80;1.00;;;;;;5014781;28;20397;-81
2023/09/27 10:21:01;;;;;;;3.53;2.50;;;19.60;1.00;;;;;;5013793;28;20392;-83
2023/09/27 10:23:26;;;;;;;4.22;2.40;;;19.40;1.00;;;;;;5013613;28;20787;-83
2023/09/27 10:25:52;;;;;;;4.18;2.78;;;19.70;1.00;;;;;;5015779;28;20395;-83
2023/09/27 10:28:17;;;;;;;3.70;2.40;;;19.90;1.00;;;;;;5015860;28;20440;-82
2023/09/27 10:30:48;;;;;;;4.67;2.50;;;19.90;1.00;;;;;;5013880;28;20436;-82
2023/09/27 10:33:20;;;;;;;2.97;2.30;;;19.70;1.00;;;;;;5005217;28;20389;-82
2023/09/27 10:36:05;;;;;;;3.05;2.42;;;20.10;1.00;;;;;;5010425;28;20392;-82
2023/09/27 10:38:43;;;;;;;3.38;2.60;;;19.90;1.00;;;;;;5008351;28;20757;-82
2023/09/27 10:41:29;;;;;;;3.90;2.50;;;20.20;1.00;;;;;;5009722;28;20427;-82
2023/09/27 10:43:54;;;;;;;2.88;2.15;;;20.30;1.00;;;;;;5009097;28;20408;-81
2023/09/27 10:46:20;;;;;;;3.90;2.30;;;20.40;1.00;;;;;;5009664;28;20385;-82
2023/09/27 10:48:56;;;;;;;3.10;2.30;;;20.40;1.00;;;;;;5009937;28;20432;-82
2023/09/27 10:51:25;;;;;;;3.00;2.27;;;20.60;1.00;;;;;;5009116;28;20916;-82
2023/09/27 10:53:51;;;;;;;4.60;2.30;;;20.70;1.00;;;;;;5010014;28;20385;-82
2023/09/27 10:56:17;;;;;;;2.72;2.53;;;20.80;1.00;;;;;;5012766;28;20454;-82
2023/09/27 10:58:49;;;;;;;4.45;2.20;;;20.70;1.00;;;;;;5005485;28;20672;-82
2023/09/27 11:01:23;;;;;;;5.30;2.70;;;21.10;1.00;;;;;;5014244;28;20780;-82
2023/09/27 11:03:57;;;;;;;3.35;2.50;;;21.10;1.00;;;;;;5011864;28;20384;-82
2023/09/27 11:06:23;;;;;;;3.78;2.40;;;21.30;1.00;;;;;;5013050;28;20412;-83
2023/09/27 11:08:48;;;;;;;3.67;2.20;;;21.50;1.00;;;;;;5020643;28;20904;-83
2023/09/27 11:11:14;;;;;;;2.80;2.60;;;21.50;1.00;;;;;;5016935;28;20455;-84
2023/09/27 11:13:44;;;;;;;3.67;2.88;;;22.10;1.00;;;;;;5011582;28;20388;-82
2023/09/27 11:16:12;;;;;;;3.30;2.60;;;22.10;1.00;;;;;;5010931;28;20401;-82
2023/09/27 11:18:46;;;;;;;4.60;2.70;;;22.60;1.00;;;;;;5006012;28;20418;-83
2023/09/27 11:21:13;;;;;;;4.00;2.63;;;22.50;1.00;;;;;;5010163;28;20428;-83
2023/09/27 11:24:07;;;;;;;3.70;3.05;;;23.50;1.00;;;;;;4999998;28;20893;-87
2023/09/27 11:26:33;;;;;;;4.40;2.83;;;23.80;1.00;;;;;;5002112;28;20810;-84
2023/09/27 11:29:05;;;;;;;2.60;2.40;;;25.10;1.00;;;;;;5021237;28;20414;-86
2023/09/27 11:31:38;;;;;;;3.15;2.50;;;25.40;1.00;;;;;;5012766;28;20440;-87
2023/09/27 11:34:14;;;;;;;4.60;2.50;;;25.10;1.00;;;;;;5021794;28;20389;-85
2023/09/27 11:36:45;;;;;;;3.28;2.70;;;25.20;1.00;;;;;;5007953;28;20400;-87
2023/09/27 11:39:13;;;;;;;3.00;2.70;;;25.90;1.00;;;;;;5012091;28;20416;-86
2023/09/27 11:41:39;;;;;;;2.85;2.50;;;25.00;1.00;;;;;;5019753;28;20419;-85
2023/09/27 11:44:18;;;;;;;4.47;2.67;;;25.90;1.00;;;;;;5019432;28;20389;-85
2023/09/27 11:46:44;;;;;;;4.03;2.60;;;25.30;1.00;;;;;;5003211;28;20393;-86
2023/09/27 11:49:10;;;;;;;4.17;2.97;;;25.80;1.00;;;;;;5016899;28;20475;-87
2023/09/27 11:51:36;;;;;;;2.90;2.70;;;25.70;1.00;;;;;;5017121;28;20392;-86
2023/09/27 11:54:04;;;;;;;3.80;3.03;;;25.50;1.00;;;;;;5023137;28;20423;-85
2023/09/27 11:56:30;;;;;;;5.05;3.30;;;25.80;1.00;;;;;;5035362;28;20404;-85
2023/09/27 11:58:56;;;;;;;3.50;2.70;;;26.00;1.00;;;;;;5033662;28;20405;-83
2023/09/27 12:01:21;;;;;;;2.90;2.60;;;25.80;1.00;;;;;;5033867;28;20645;-84
2023/09/27 12:03:47;;;;;;;3.00;2.67;;;25.80;1.00;;;;;;5033071;28;20424;-86
2023/09/27 12:06:13;;;;;;;3.53;2.70;;;26.40;1.00;;;;;;5018777;28;20401;-85
2023/09/27 12:08:38;;;;;;;3.43;2.60;;;25.10;1.00;;;;;;5031473;28;20427;-85
2023/09/27 12:11:04;;;;;;;5.00;3.00;;;26.50;1.00;;;;;;5018736;28;20443;-85
2023/09/27 12:13:30;;;;;;;3.40;2.70;;;25.60;1.00;;;;;;5006143;28;20861;-85
2023/09/27 12:15:55;;;;;;;3.83;2.70;;;25.80;1.00;;;;;;5001100;28;20766;-85
2023/09/27 12:18:23;;;;;;;3.30;2.75;;;25.20;1.00;;;;;;5013086;28;20389;-86
2023/09/27 12:20:49;;;;;;;4.22;2.60;;;24.60;1.00;;;;;;5013815;28;20769;-85
2023/09/27 12:23:15;;;;;;;3.83;2.60;;;24.70;1.00;;;;;;5008185;28;20394;-86
2023/09/27 12:25:41;;;;;;;3.28;2.60;;;25.50;1.00;;;;;;5008250;28;20385;-86
2023/09/27 12:28:07;;;;;;;4.30;2.70;;;25.70;1.00;;;;;;5016653;28;20492;-85
2023/09/27 12:30:33;;;;;;;4.00;2.80;;;24.30;1.00;;;;;;5016466;28;20490;-86
2023/09/27 12:32:59;;;;;;;3.10;2.80;;;25.00;1.00;;;;;;5008539;28;20429;-87
2023/09/27 12:35:24;;;;;;;2.70;2.50;;;24.80;1.00;;;;;;5007171;28;20389;-86
2023/09/27 12:37:50;;;;;;;7.90;3.20;;;26.40;1.00;;;;;;5014443;28;20946;-88
2023/09/27 12:40:15;;;;;;;3.67;3.10;;;26.20;1.00;;;;;;5013175;28;20946;-88
2023/09/27 12:42:41;;;;;;;3.60;2.70;;;25.50;1.00;;;;;;5020597;28;20385;-88
2023/09/27 12:45:07;;;;;;;3.60;2.73;;;26.20;1.00;;;;;;5036425;28;20419;-88
2023/09/27 12:47:33;;;;;;;4.60;3.10;;;25.60;1.00;;;;;;5031722;28;20773;-87
2023/09/27 12:50:03;;;;;;;4.03;3.08;;;25.20;1.00;;;;;;5012875;28;20776;-88
2023/09/27 12:52:31;;;;;;;3.13;2.78;;;25.70;1.00;;;;;;5012673;28;20873;-89
2023/09/27 12:54:56;;;;;;;3.70;2.65;;;26.70;1.00;;;;;;5015663;28;20392;-90
2023/09/27 12:57:22;;;;;;;2.88;2.58;;;24.60;1.00;;;;;;5014085;28;20504;-89
2023/09/27 12:59:49;;;;;;;3.63;2.87;;;24.90;1.00;;;;;;5012358;28;20413;-90